createdAt,value
2024-03-15T02:58:55.174Z,96.86
2024-03-15T03:01:41.181Z,96.99
2024-03-15T03:04:26.970Z,96.81
2024-03-15T03:07:12.730Z,96.67
2024-03-15T03:09:58.144Z,96.70
2024-03-15T03:12:43.731Z,96.10
2024-03-15T03:15:29.972Z,95.64
2024-03-15T03:18:16.745Z,95.84
2024-03-15T03:21:02.365Z,95.43
2024-03-15T03:23:48.180Z,94.78
2024-03-15T03:26:33.708Z,94.31
2024-03-15T03:29:20.481Z,93.99
2024-03-15T03:32:07.939Z,94.05
2024-03-15T03:34:54.965Z,93.44
2024-03-15T03:37:40.610Z,93.47
2024-03-15T03:40:27.116Z,93.08
2024-03-15T03:43:15.200Z,92.79
2024-03-15T03:46:01.552Z,92.78
2024-03-15T03:48:47.541Z,93.18
2024-03-15T03:51:33.131Z,92.94
2024-03-15T03:54:18.836Z,92.88
2024-03-15T03:57:04.819Z,92.82
2024-03-15T03:59:50.423Z,92.09
2024-03-15T04:02:35.905Z,92.72
2024-03-15T04:05:21.636Z,92.88
2024-03-15T04:08:07.437Z,92.93
2024-03-15T04:10:55.905Z,92.67
2024-03-15T04:13:42.183Z,93.08
2024-03-15T04:16:27.847Z,93.25
2024-03-15T04:19:14.492Z,93.15
2024-03-15T04:22:00.132Z,93.15
2024-03-15T04:24:46.050Z,93.69
2024-03-15T04:27:34.489Z,93.51
2024-03-15T04:30:23.136Z,93.14
2024-03-15T04:33:09.102Z,93.10
2024-03-15T04:35:55.391Z,93.40
2024-03-15T04:38:40.880Z,93.17
2024-03-15T04:41:26.545Z,93.34
2024-03-15T04:44:12.042Z,93.09
2024-03-15T04:46:58.381Z,93.03
2024-03-15T04:49:44.080Z,92.65
2024-03-15T04:52:30.840Z,92.14
2024-03-15T04:55:16.583Z,91.81
2024-03-15T04:58:03.602Z,91.76
2024-03-15T05:00:50.802Z,91.71
2024-03-15T05:03:36.875Z,91.76
2024-03-15T05:06:30.537Z,92.10
2024-03-15T05:09:17.242Z,92.17
2024-03-15T05:12:03.612Z,92.56
2024-03-15T05:14:49.119Z,92.81
2024-03-15T05:17:34.751Z,92.46
2024-03-15T05:20:21.313Z,92.50
2024-03-15T05:23:08.781Z,92.64
2024-03-15T05:25:55.328Z,93.19
2024-03-15T05:28:42.786Z,93.57
2024-03-15T05:31:30.074Z,93.68
2024-03-15T05:34:16.642Z,93.63
2024-03-15T05:37:04.335Z,93.81
2024-03-15T05:39:52.104Z,94.10
2024-03-15T05:42:37.408Z,94.38
2024-03-15T05:45:23.572Z,95.11
2024-03-15T05:48:09.145Z,95.41
2024-03-15T05:50:54.754Z,95.89
2024-03-15T05:53:40.631Z,95.51
2024-03-15T05:56:26.552Z,94.81
2024-03-15T05:59:13.336Z,94.16
2024-03-15T06:02:01.106Z,94.60
2024-03-15T06:04:50.425Z,93.93
2024-03-15T06:07:36.170Z,92.64
2024-03-15T06:10:31.636Z,90.77
2024-03-15T06:13:17.130Z,90.66
2024-03-15T06:16:11.390Z,90.19
2024-03-15T06:18:59.465Z,89.41
2024-03-15T06:21:46.561Z,88.83
2024-03-15T06:28:12.573Z,89.11
2024-03-15T06:31:00.281Z,88.62
2024-03-15T06:33:49.717Z,88.30
2024-03-15T06:36:43.497Z,88.21
2024-03-15T06:39:38.974Z,88.06
2024-03-15T06:42:25.564Z,87.85
2024-03-15T06:45:24.454Z,87.98
2024-03-15T06:48:23.087Z,87.54
2024-03-15T06:51:26.921Z,87.40
2024-03-15T06:54:15.003Z,86.03
2024-03-15T06:57:01.170Z,84.79
2024-03-15T06:59:46.760Z,84.91
2024-03-15T07:02:32.332Z,85.13
2024-03-15T07:05:17.798Z,85.21
2024-03-15T07:08:06.492Z,84.49
2024-03-15T07:10:54.617Z,84.02
2024-03-15T07:13:41.658Z,83.22
2024-03-15T07:16:28.829Z,82.70
2024-03-15T07:19:15.880Z,81.82
2024-03-15T07:22:02.095Z,81.05
2024-03-15T07:24:51.570Z,81.12
2024-03-15T07:27:38.801Z,79.98
2024-03-15T07:30:24.873Z,80.30
2024-03-15T07:33:11.062Z,79.68
2024-03-15T07:36:01.770Z,80.13
2024-03-15T07:38:48.610Z,79.80
2024-03-15T07:41:35.415Z,79.65
2024-03-15T07:44:23.840Z,80.77
2024-03-15T07:47:10.016Z,79.03
2024-03-15T07:49:56.246Z,79.26
2024-03-15T07:52:42.502Z,77.89
2024-03-15T07:55:28.399Z,77.11
2024-03-15T07:58:15.619Z,77.47
2024-03-15T08:01:02.411Z,77.26
2024-03-15T08:03:48.143Z,76.47
2024-03-15T08:06:33.952Z,76.34
2024-03-15T08:09:20.206Z,75.49
2024-03-15T08:12:07.226Z,76.11
2024-03-15T08:14:52.975Z,76.31
2024-03-15T08:17:39.044Z,76.09
2024-03-15T08:20:25.139Z,75.32
2024-03-15T08:23:11.616Z,73.73
2024-03-15T08:25:58.767Z,74.43
2024-03-15T08:28:46.313Z,73.95
2024-03-15T08:31:32.845Z,73.93
2024-03-15T08:34:19.805Z,74.54
2024-03-15T08:37:08.228Z,73.73
2024-03-15T08:39:53.552Z,73.48
2024-03-15T08:42:40.685Z,72.61
2024-03-15T08:45:26.379Z,72.66
2024-03-15T08:48:13.047Z,72.12
2024-03-15T08:50:59.081Z,71.32
2024-03-15T08:53:59.782Z,71.80
2024-03-15T08:56:46.824Z,71.85
2024-03-15T08:59:34.356Z,70.92
2024-03-15T09:02:20.106Z,71.19
2024-03-15T09:05:09.409Z,70.67
2024-03-15T09:07:55.170Z,69.92
2024-03-15T09:10:41.375Z,69.17
2024-03-15T09:13:27.540Z,68.94
2024-03-15T09:16:14.321Z,68.99
2024-03-15T09:18:59.920Z,68.00
2024-03-15T09:21:49.429Z,67.44
2024-03-15T09:24:35.496Z,67.36
2024-03-15T09:27:21.822Z,66.54
2024-03-15T09:30:16.985Z,66.36
2024-03-15T09:33:10.114Z,65.96
2024-03-15T09:35:56.624Z,65.94
2024-03-15T09:38:43.081Z,65.94
2024-03-15T09:41:32.494Z,65.92
2024-03-15T09:44:19.355Z,65.28
2024-03-15T09:47:14.802Z,64.63
2024-03-15T09:50:02.050Z,64.25
2024-03-15T09:52:50.771Z,65.27
2024-03-15T09:55:37.182Z,64.82
2024-03-15T10:01:43.491Z,65.91
2024-03-15T10:08:07.278Z,64.18
2024-03-15T10:10:52.740Z,64.10
2024-03-15T10:13:39.491Z,63.83
2024-03-15T10:16:30.535Z,64.61
2024-03-15T10:19:35.201Z,64.41
2024-03-15T10:22:23.570Z,63.67
2024-03-15T10:25:17.228Z,64.26
2024-03-15T10:28:04.694Z,64.27
2024-03-15T10:30:56.292Z,62.31
2024-03-15T10:33:45.411Z,61.82
2024-03-15T10:36:32.983Z,61.83
2024-03-15T10:39:18.806Z,61.58
2024-03-15T10:42:13.208Z,61.57
2024-03-15T10:44:58.818Z,62.17
2024-03-15T10:47:44.742Z,61.55
2024-03-15T10:50:30.835Z,61.56
2024-03-15T10:53:19.752Z,61.73
2024-03-15T10:56:07.710Z,62.25
2024-03-15T10:58:53.427Z,62.47
2024-03-15T11:01:40.918Z,62.88
2024-03-15T11:04:26.720Z,61.79
2024-03-15T11:07:12.538Z,62.43
2024-03-15T11:09:58.271Z,62.82
2024-03-15T11:12:51.151Z,62.18
2024-03-15T11:15:38.257Z,62.39
2024-03-15T11:18:24.078Z,61.97
2024-03-15T11:21:22.749Z,62.29
2024-03-15T11:24:14.918Z,62.52
2024-03-15T11:27:10.393Z,63.02
2024-03-15T11:29:57.621Z,63.08
2024-03-15T11:32:43.917Z,63.21
2024-03-15T11:35:30.228Z,63.47
2024-03-15T11:38:19.210Z,64.31
2024-03-15T11:41:05.188Z,64.72
2024-03-15T11:43:55.373Z,64.78
2024-03-15T11:46:47.960Z,63.58
2024-03-15T11:49:33.658Z,63.56
2024-03-15T11:52:19.295Z,63.71
2024-03-15T11:55:07.634Z,64.65
2024-03-15T11:57:53.395Z,64.56
2024-03-15T12:00:39.388Z,63.98
2024-03-15T12:03:27.106Z,63.89
2024-03-15T12:06:13.126Z,64.18
2024-03-15T12:09:04.148Z,64.98
2024-03-15T12:11:54.349Z,64.99
2024-03-15T12:14:40.804Z,64.63
2024-03-15T12:17:27.281Z,65.07
2024-03-15T12:20:13.004Z,65.31
2024-03-15T12:23:00.315Z,64.04
2024-03-15T12:25:47.285Z,63.81
2024-03-15T12:28:34.314Z,63.84
2024-03-15T12:31:20.180Z,63.46
2024-03-15T12:34:06.017Z,63.37
2024-03-15T12:36:52.855Z,62.77
2024-03-15T12:39:40.203Z,63.28
2024-03-15T12:42:26.941Z,62.63
2024-03-15T12:45:13.262Z,63.68
2024-03-15T12:47:59.211Z,63.87
2024-03-15T12:50:45.590Z,64.84
2024-03-15T12:53:31.185Z,63.73
2024-03-15T12:56:16.612Z,63.14
2024-03-15T12:59:01.868Z,63.00
2024-03-15T13:01:47.457Z,62.71
2024-03-15T13:04:33.189Z,62.73
2024-03-15T13:07:18.880Z,62.40
2024-03-15T13:10:04.764Z,62.04
2024-03-15T13:12:53.928Z,62.18
2024-03-15T13:19:32.602Z,60.19
2024-03-15T13:22:19.947Z,60.29
2024-03-15T13:25:14.668Z,60.39
2024-03-15T13:28:08.585Z,61.19
2024-03-15T13:30:55.265Z,60.83
2024-03-15T13:33:40.942Z,61.62
2024-03-15T13:36:28.306Z,61.15
2024-03-15T13:39:31.336Z,62.34
2024-03-15T13:42:34.538Z,62.66
2024-03-15T13:45:23.455Z,62.63
2024-03-15T13:48:28.447Z,62.69
2024-03-15T13:51:14.684Z,62.86
2024-03-15T13:54:01.630Z,63.40
2024-03-15T13:56:47.790Z,62.87
2024-03-15T13:59:34.364Z,62.77
2024-03-15T14:02:19.957Z,63.03
2024-03-15T14:05:07.706Z,63.52
2024-03-15T14:07:53.830Z,63.84
2024-03-15T14:10:43.253Z,63.75
2024-03-15T14:13:30.516Z,63.48
2024-03-15T14:16:17.095Z,64.31
2024-03-15T14:19:05.486Z,63.64
2024-03-15T14:21:51.751Z,63.93
2024-03-15T14:24:37.363Z,63.76
2024-03-15T14:27:23.213Z,64.02
2024-03-15T14:30:12.028Z,64.56
2024-03-15T14:32:59.758Z,65.46
2024-03-15T14:35:49.631Z,65.96
2024-03-15T14:38:39.571Z,65.95
2024-03-15T14:41:24.999Z,66.10
2024-03-15T14:44:14.007Z,66.30
2024-03-15T14:46:59.734Z,66.51
2024-03-15T14:49:45.340Z,66.74
2024-03-15T14:52:37.296Z,67.33
2024-03-15T14:55:25.591Z,67.76
2024-03-15T14:58:15.220Z,68.51
2024-03-15T15:01:01.569Z,68.38
2024-03-15T15:03:49.932Z,69.00
2024-03-15T15:06:35.858Z,68.68
2024-03-15T15:09:22.215Z,68.45
2024-03-15T15:12:08.036Z,68.67
2024-03-15T15:14:53.911Z,68.80
2024-03-15T15:17:42.390Z,68.76
2024-03-15T15:20:29.477Z,69.14
2024-03-15T15:26:22.848Z,69.22
2024-03-15T15:29:08.871Z,70.05
2024-03-15T15:31:58.074Z,70.24
2024-03-15T15:34:43.320Z,70.21
2024-03-15T15:37:28.836Z,70.12
2024-03-15T15:40:15.449Z,71.19
2024-03-15T15:43:02.056Z,71.69
2024-03-15T15:45:52.264Z,71.74
2024-03-15T15:48:38.692Z,71.76
2024-03-15T15:51:28.624Z,71.52
2024-03-15T15:54:15.615Z,71.67
2024-03-15T15:57:02.159Z,72.28
2024-03-15T15:59:47.502Z,72.98
2024-03-15T16:02:34.019Z,73.25
2024-03-15T16:05:20.062Z,73.67
2024-03-15T16:08:07.821Z,73.78
2024-03-15T16:10:53.898Z,74.06
2024-03-15T16:13:40.135Z,74.15
2024-03-15T16:16:25.459Z,74.26
2024-03-15T16:19:13.044Z,74.62
2024-03-15T16:22:03.520Z,74.72
2024-03-15T16:24:49.187Z,74.45
2024-03-15T16:27:38.357Z,74.49
2024-03-15T16:30:25.769Z,74.22
2024-03-15T16:33:15.827Z,74.20
2024-03-15T16:36:01.576Z,74.37
2024-03-15T16:38:47.093Z,74.65
2024-03-15T16:41:37.312Z,74.82
2024-03-15T16:44:25.854Z,75.43
2024-03-15T16:47:11.400Z,75.54
2024-03-15T16:49:57.033Z,75.29
2024-03-15T16:52:43.052Z,75.17
2024-03-15T16:55:29.332Z,75.63
2024-03-15T16:58:15.431Z,75.59
2024-03-15T17:01:03.594Z,75.73
2024-03-15T17:03:49.066Z,76.02
2024-03-15T17:06:37.128Z,75.73
2024-03-15T17:09:26.090Z,76.12
2024-03-15T17:12:11.854Z,75.93
2024-03-15T17:14:59.063Z,75.87
2024-03-15T17:17:45.047Z,76.15
2024-03-15T17:20:33.919Z,76.37
2024-03-15T17:23:22.453Z,76.50
2024-03-15T17:26:08.130Z,76.69
2024-03-15T17:28:53.876Z,76.81
2024-03-15T17:35:29.111Z,76.71
2024-03-15T17:38:14.517Z,77.06
2024-03-15T17:41:00.513Z,77.25
2024-03-15T17:43:46.954Z,77.25
2024-03-15T17:46:32.447Z,77.46
2024-03-15T17:49:18.940Z,77.49
2024-03-15T17:52:06.245Z,77.81
2024-03-15T17:54:51.852Z,77.83
2024-03-15T17:57:37.776Z,77.99
2024-03-15T18:00:25.724Z,77.77
2024-03-15T18:03:11.498Z,77.88
2024-03-15T18:05:57.423Z,78.15
2024-03-15T18:08:43.386Z,78.04
2024-03-15T18:11:30.491Z,78.27
2024-03-15T18:14:16.407Z,78.74
2024-03-15T18:17:01.775Z,78.81
2024-03-15T18:19:49.160Z,78.90
2024-03-15T18:22:34.552Z,79.00
2024-03-15T18:25:19.878Z,79.22
2024-03-15T18:28:06.544Z,79.43
2024-03-15T18:30:52.188Z,79.96
2024-03-15T18:33:39.156Z,79.98
2024-03-15T18:36:25.790Z,80.48
2024-03-15T18:39:11.727Z,80.22
2024-03-15T18:41:57.622Z,80.78
2024-03-15T18:44:43.277Z,80.73
2024-03-15T18:47:29.875Z,81.31
2024-03-15T18:50:15.766Z,81.46
2024-03-15T18:53:01.120Z,81.40
2024-03-15T18:55:47.638Z,81.39
2024-03-15T18:58:33.281Z,81.58
2024-03-15T19:01:21.074Z,81.78
2024-03-15T19:04:07.118Z,81.51
2024-03-15T19:06:52.857Z,81.71
2024-03-15T19:09:39.196Z,81.56
2024-03-15T19:12:25.867Z,81.52
2024-03-15T19:15:11.971Z,81.74
2024-03-15T19:17:57.452Z,81.33
2024-03-15T19:20:43.522Z,81.46
2024-03-15T19:23:31.021Z,82.01
2024-03-15T19:26:17.029Z,81.98
2024-03-15T19:29:02.859Z,82.16
2024-03-15T19:31:50.725Z,82.38
2024-03-15T19:34:36.810Z,82.20
2024-03-15T19:37:23.436Z,82.63
2024-03-15T19:40:11.217Z,82.71
2024-03-15T19:42:58.181Z,83.13
2024-03-15T19:45:44.672Z,83.43
2024-03-15T19:48:30.604Z,83.53
2024-03-15T19:51:19.957Z,83.52
2024-03-15T19:54:05.768Z,83.63
2024-03-15T19:56:51.943Z,83.20
2024-03-15T19:59:37.605Z,83.25
2024-03-15T20:02:23.965Z,83.14
2024-03-15T20:05:09.559Z,82.59
2024-03-15T20:07:55.014Z,82.39
2024-03-15T20:10:41.059Z,82.17
2024-03-15T20:13:26.576Z,82.44
2024-03-15T20:16:14.145Z,82.54
2024-03-15T20:18:59.508Z,82.69
2024-03-15T20:21:45.394Z,82.37
2024-03-15T20:24:31.372Z,82.45
2024-03-15T20:27:16.708Z,82.48
2024-03-15T20:30:04.986Z,82.77
2024-03-15T20:32:50.988Z,82.40
2024-03-15T20:35:36.511Z,82.34
2024-03-15T20:38:22.137Z,82.24
2024-03-15T20:41:08.173Z,81.94
2024-03-15T20:43:54.116Z,82.06
2024-03-15T20:46:39.773Z,82.01
2024-03-15T20:49:25.838Z,81.95
2024-03-15T20:52:11.287Z,81.69
2024-03-15T20:54:56.707Z,81.36
2024-03-15T20:57:42.113Z,81.25
2024-03-15T21:00:28.109Z,80.71
2024-03-15T21:03:14.544Z,80.62
2024-03-15T21:06:00.047Z,81.01
2024-03-15T21:08:46.473Z,81.59
2024-03-15T21:11:32.161Z,81.50
2024-03-15T21:14:18.880Z,81.79
2024-03-15T21:17:06.215Z,81.66
2024-03-15T21:19:52.593Z,81.54
2024-03-15T21:22:37.981Z,82.10
2024-03-15T21:25:29.224Z,82.30
2024-03-15T21:28:14.940Z,82.40
2024-03-15T21:31:00.195Z,82.93
2024-03-15T21:33:47.888Z,84.02
2024-03-15T21:36:33.815Z,83.82
2024-03-15T21:39:21.622Z,83.90
2024-03-15T21:42:07.593Z,84.21
2024-03-15T21:44:53.269Z,83.73
2024-03-15T21:47:41.022Z,83.72
2024-03-15T21:50:27.899Z,83.52
2024-03-15T21:53:14.390Z,83.48
2024-03-15T21:55:59.877Z,83.78
2024-03-15T21:58:45.516Z,83.99
2024-03-15T22:01:37.737Z,83.89
2024-03-15T22:04:30.540Z,83.23
2024-03-15T22:07:16.677Z,84.42
2024-03-15T22:10:02.619Z,84.62
2024-03-15T22:12:49.045Z,84.56
2024-03-15T22:15:35.016Z,84.69
2024-03-15T22:18:20.931Z,84.75
2024-03-15T22:21:06.394Z,84.90
2024-03-15T22:23:51.834Z,84.74
2024-03-15T22:26:38.220Z,84.75
2024-03-15T22:29:24.075Z,84.38
2024-03-15T22:32:11.905Z,84.52
2024-03-15T22:34:57.630Z,84.65
2024-03-15T22:37:45.910Z,85.11
2024-03-15T22:40:31.734Z,85.31
2024-03-15T22:43:16.979Z,85.29
2024-03-15T22:46:02.271Z,85.18
2024-03-15T22:48:48.201Z,85.50
2024-03-15T22:51:34.302Z,85.52
2024-03-15T22:54:19.512Z,85.53
2024-03-15T22:57:05.153Z,85.65
2024-03-15T22:59:51.258Z,85.70
2024-03-15T23:02:36.830Z,86.02
2024-03-15T23:05:22.311Z,86.22
2024-03-15T23:08:07.593Z,85.86
2024-03-15T23:10:54.406Z,86.06
2024-03-15T23:13:39.926Z,85.60
2024-03-15T23:16:25.986Z,85.65
2024-03-15T23:19:12.654Z,85.58
2024-03-15T23:21:59.591Z,86.13
2024-03-15T23:24:48.407Z,85.78
2024-03-15T23:27:39.322Z,85.89
2024-03-15T23:30:25.203Z,86.05
2024-03-15T23:33:14.922Z,86.28
2024-03-15T23:36:00.418Z,86.30
2024-03-15T23:38:46.385Z,86.33
2024-03-15T23:41:33.953Z,86.73
2024-03-15T23:44:20.138Z,86.91
2024-03-15T23:47:06.313Z,87.58
2024-03-15T23:49:52.450Z,87.87
2024-03-15T23:52:38.112Z,88.14
2024-03-15T23:55:23.657Z,88.04
2024-03-15T23:58:09.148Z,87.95
